sensor_id;sensor_type;location;lat;lon;timestamp;P1;durP1;ratioP1;P2;durP2;ratioP2
12603;SDS011;6367;52.508;13.284;2023-07-20T00:00:51;4.20;;;3.80;;
12603;SDS011;6367;52.508;13.284;2023-07-20T00:03:18;3.40;;;3.13;;
12603;SDS011;6367;52.508;13.284;2023-07-20T00:05:48;3.60;;;3.30;;
12603;SDS011;6367;52.508;13.284;2023-07-20T00:08:14;4.03;;;3.60;;
12603;SDS011;6367;52.508;13.284;2023-07-20T00:10:41;5.30;;;3.20;;
12603;SDS011;6367;52.508;13.284;2023-07-20T00:13:07;5.93;;;3.50;;
12603;SDS011;6367;52.508;13.284;2023-07-20T00:15:32;4.03;;;3.73;;
12603;SDS011;6367;52.508;13.284;2023-07-20T00:17:58;4.10;;;3.80;;
12603;SDS011;6367;52.508;13.284;2023-07-20T00:20:24;3.80;;;3.40;;
12603;SDS011;6367;52.508;13.284;2023-07-20T00:22:50;5.47;;;3.77;;
12603;SDS011;6367;52.508;13.284;2023-07-20T00:25:17;5.10;;;3.00;;
12603;SDS011;6367;52.508;13.284;2023-07-20T00:27:43;4.63;;;3.83;;
12603;SDS011;6367;52.508;13.284;2023-07-20T00:30:09;3.67;;;3.37;;
12603;SDS011;6367;52.508;13.284;2023-07-20T00:32:35;3.73;;;3.30;;
12603;SDS011;6367;52.508;13.284;2023-07-20T00:35:00;4.57;;;4.03;;
12603;SDS011;6367;52.508;13.284;2023-07-20T00:37:26;3.33;;;3.13;;
12603;SDS011;6367;52.508;13.284;2023-07-20T00:39:52;4.10;;;3.60;;
12603;SDS011;6367;52.508;13.284;2023-07-20T00:42:18;5.27;;;3.80;;
12603;SDS011;6367;52.508;13.284;2023-07-20T00:44:44;3.70;;;3.37;;
12603;SDS011;6367;52.508;13.284;2023-07-20T00:47:09;4.50;;;4.20;;
12603;SDS011;6367;52.508;13.284;2023-07-20T00:49:35;7.77;;;4.20;;
12603;SDS011;6367;52.508;13.284;2023-07-20T00:52:02;3.93;;;3.73;;
12603;SDS011;6367;52.508;13.284;2023-07-20T00:54:30;4.30;;;3.97;;
12603;SDS011;6367;52.508;13.284;2023-07-20T00:56:56;4.47;;;3.77;;
12603;SDS011;6367;52.508;13.284;2023-07-20T00:59:23;4.77;;;4.10;;
12603;SDS011;6367;52.508;13.284;2023-07-20T01:01:49;5.00;;;3.90;;
12603;SDS011;6367;52.508;13.284;2023-07-20T01:04:14;4.47;;;4.17;;
12603;SDS011;6367;52.508;13.284;2023-07-20T01:14:52;4.97;;;4.57;;
12603;SDS011;6367;52.508;13.284;2023-07-20T01:17:19;5.13;;;4.63;;
12603;SDS011;6367;52.508;13.284;2023-07-20T01:19:44;6.23;;;4.23;;
12603;SDS011;6367;52.508;13.284;2023-07-20T01:22:19;4.50;;;4.20;;
12603;SDS011;6367;52.508;13.284;2023-07-20T01:25:04;5.10;;;4.60;;
12603;SDS011;6367;52.508;13.284;2023-07-20T01:33:25;5.20;;;4.07;;
12603;SDS011;6367;52.508;13.284;2023-07-20T01:35:53;5.70;;;5.20;;
12603;SDS011;6367;52.508;13.284;2023-07-20T01:38:21;4.57;;;4.10;;
12603;SDS011;6367;52.508;13.284;2023-07-20T01:40:48;5.40;;;4.90;;
12603;SDS011;6367;52.508;13.284;2023-07-20T01:43:15;5.50;;;5.10;;
12603;SDS011;6367;52.508;13.284;2023-07-20T01:45:41;4.50;;;4.20;;
12603;SDS011;6367;52.508;13.284;2023-07-20T01:48:07;5.23;;;4.83;;
12603;SDS011;6367;52.508;13.284;2023-07-20T01:50:32;4.47;;;4.07;;
12603;SDS011;6367;52.508;13.284;2023-07-20T01:52:59;5.03;;;4.43;;
12603;SDS011;6367;52.508;13.284;2023-07-20T01:55:25;4.00;;;3.70;;
12603;SDS011;6367;52.508;13.284;2023-07-20T01:57:51;4.93;;;4.43;;
12603;SDS011;6367;52.508;13.284;2023-07-20T02:00:17;4.53;;;4.20;;
12603;SDS011;6367;52.508;13.284;2023-07-20T02:02:46;5.63;;;4.93;;
12603;SDS011;6367;52.508;13.284;2023-07-20T02:05:12;6.07;;;4.17;;
12603;SDS011;6367;52.508;13.284;2023-07-20T02:07:37;5.07;;;3.90;;
12603;SDS011;6367;52.508;13.284;2023-07-20T02:10:03;4.67;;;4.27;;
12603;SDS011;6367;52.508;13.284;2023-07-20T02:12:29;4.70;;;4.40;;
12603;SDS011;6367;52.508;13.284;2023-07-20T02:14:55;5.07;;;4.67;;
12603;SDS011;6367;52.508;13.284;2023-07-20T02:17:20;4.30;;;4.00;;
12603;SDS011;6367;52.508;13.284;2023-07-20T02:19:46;4.97;;;4.57;;
12603;SDS011;6367;52.508;13.284;2023-07-20T02:22:14;4.87;;;4.57;;
12603;SDS011;6367;52.508;13.284;2023-07-20T02:24:41;4.17;;;3.80;;
12603;SDS011;6367;52.508;13.284;2023-07-20T02:27:07;5.77;;;5.27;;
12603;SDS011;6367;52.508;13.284;2023-07-20T02:29:33;4.63;;;4.30;;
12603;SDS011;6367;52.508;13.284;2023-07-20T02:31:59;5.03;;;4.73;;
12603;SDS011;6367;52.508;13.284;2023-07-20T02:34:24;4.63;;;4.30;;
12603;SDS011;6367;52.508;13.284;2023-07-20T02:36:50;7.10;;;5.63;;
12603;SDS011;6367;52.508;13.284;2023-07-20T02:39:16;4.40;;;4.00;;
12603;SDS011;6367;52.508;13.284;2023-07-20T02:41:41;6.27;;;5.70;;
12603;SDS011;6367;52.508;13.284;2023-07-20T02:44:07;5.63;;;5.23;;
12603;SDS011;6367;52.508;13.284;2023-07-20T02:46:33;5.80;;;5.40;;
12603;SDS011;6367;52.508;13.284;2023-07-20T02:49:00;6.07;;;5.57;;
12603;SDS011;6367;52.508;13.284;2023-07-20T02:51:26;6.40;;;5.90;;
12603;SDS011;6367;52.508;13.284;2023-07-20T02:53:51;5.50;;;5.10;;
12603;SDS011;6367;52.508;13.284;2023-07-20T02:56:17;6.07;;;5.67;;
12603;SDS011;6367;52.508;13.284;2023-07-20T02:58:43;6.50;;;5.90;;
12603;SDS011;6367;52.508;13.284;2023-07-20T03:01:10;7.10;;;6.50;;
12603;SDS011;6367;52.508;13.284;2023-07-20T03:03:37;6.50;;;6.03;;
12603;SDS011;6367;52.508;13.284;2023-07-20T03:06:03;8.50;;;7.90;;
12603;SDS011;6367;52.508;13.284;2023-07-20T03:08:29;8.87;;;8.07;;
12603;SDS011;6367;52.508;13.284;2023-07-20T03:10:55;10.10;;;9.10;;
12603;SDS011;6367;52.508;13.284;2023-07-20T03:13:21;8.07;;;7.47;;
12603;SDS011;6367;52.508;13.284;2023-07-20T03:15:46;8.77;;;7.97;;
12603;SDS011;6367;52.508;13.284;2023-07-20T03:18:12;9.03;;;8.10;;
12603;SDS011;6367;52.508;13.284;2023-07-20T03:20:38;8.67;;;7.97;;
12603;SDS011;6367;52.508;13.284;2023-07-20T03:23:04;9.13;;;8.03;;
12603;SDS011;6367;52.508;13.284;2023-07-20T03:25:29;9.47;;;8.53;;
12603;SDS011;6367;52.508;13.284;2023-07-20T03:27:55;9.90;;;8.97;;
12603;SDS011;6367;52.508;13.284;2023-07-20T03:30:20;9.37;;;8.57;;
12603;SDS011;6367;52.508;13.284;2023-07-20T03:32:46;9.83;;;8.93;;
12603;SDS011;6367;52.508;13.284;2023-07-20T03:35:12;9.53;;;8.33;;
12603;SDS011;6367;52.508;13.284;2023-07-20T03:37:37;10.20;;;9.13;;
12603;SDS011;6367;52.508;13.284;2023-07-20T03:40:03;10.13;;;9.33;;
12603;SDS011;6367;52.508;13.284;2023-07-20T03:42:30;8.63;;;8.03;;
12603;SDS011;6367;52.508;13.284;2023-07-20T03:44:55;9.07;;;8.37;;
12603;SDS011;6367;52.508;13.284;2023-07-20T03:47:21;9.30;;;8.50;;
12603;SDS011;6367;52.508;13.284;2023-07-20T03:49:47;9.73;;;8.93;;
12603;SDS011;6367;52.508;13.284;2023-07-20T03:52:12;10.27;;;9.47;;
12603;SDS011;6367;52.508;13.284;2023-07-20T03:54:38;9.40;;;8.60;;
12603;SDS011;6367;52.508;13.284;2023-07-20T03:57:04;9.73;;;8.80;;
12603;SDS011;6367;52.508;13.284;2023-07-20T03:59:30;9.27;;;8.43;;
12603;SDS011;6367;52.508;13.284;2023-07-20T04:01:55;11.10;;;10.10;;
12603;SDS011;6367;52.508;13.284;2023-07-20T04:04:21;11.20;;;10.20;;
12603;SDS011;6367;52.508;13.284;2023-07-20T04:06:46;12.10;;;11.07;;
12603;SDS011;6367;52.508;13.284;2023-07-20T04:09:12;10.50;;;9.50;;
12603;SDS011;6367;52.508;13.284;2023-07-20T04:11:38;8.73;;;8.03;;
12603;SDS011;6367;52.508;13.284;2023-07-20T04:14:04;8.10;;;7.50;;
12603;SDS011;6367;52.508;13.284;2023-07-20T04:16:29;8.17;;;7.57;;
12603;SDS011;6367;52.508;13.284;2023-07-20T04:18:55;8.93;;;8.03;;
12603;SDS011;6367;52.508;13.284;2023-07-20T04:21:21;9.00;;;8.17;;
12603;SDS011;6367;52.508;13.284;2023-07-20T04:23:47;9.77;;;8.87;;
12603;SDS011;6367;52.508;13.284;2023-07-20T04:26:13;9.43;;;8.53;;
12603;SDS011;6367;52.508;13.284;2023-07-20T04:28:39;9.20;;;8.40;;
12603;SDS011;6367;52.508;13.284;2023-07-20T04:31:10;9.10;;;8.30;;
12603;SDS011;6367;52.508;13.284;2023-07-20T04:33:40;10.07;;;9.10;;
12603;SDS011;6367;52.508;13.284;2023-07-20T04:36:06;9.07;;;8.27;;
12603;SDS011;6367;52.508;13.284;2023-07-20T04:38:32;8.03;;;7.43;;
12603;SDS011;6367;52.508;13.284;2023-07-20T04:40:58;9.53;;;8.73;;
12603;SDS011;6367;52.508;13.284;2023-07-20T04:43:23;11.23;;;10.30;;
12603;SDS011;6367;52.508;13.284;2023-07-20T04:45:49;9.13;;;8.23;;
12603;SDS011;6367;52.508;13.284;2023-07-20T04:48:15;9.00;;;8.10;;
12603;SDS011;6367;52.508;13.284;2023-07-20T04:50:42;8.90;;;8.00;;
12603;SDS011;6367;52.508;13.284;2023-07-20T04:53:11;8.67;;;7.90;;
12603;SDS011;6367;52.508;13.284;2023-07-20T04:55:40;9.33;;;8.53;;
12603;SDS011;6367;52.508;13.284;2023-07-20T04:58:15;8.13;;;7.33;;
12603;SDS011;6367;52.508;13.284;2023-07-20T05:00:42;7.17;;;6.60;;
12603;SDS011;6367;52.508;13.284;2023-07-20T05:03:07;8.10;;;7.50;;
12603;SDS011;6367;52.508;13.284;2023-07-20T05:05:33;8.60;;;8.00;;
12603;SDS011;6367;52.508;13.284;2023-07-20T05:07:59;8.27;;;7.67;;
12603;SDS011;6367;52.508;13.284;2023-07-20T05:10:24;8.33;;;7.50;;
12603;SDS011;6367;52.508;13.284;2023-07-20T05:12:50;7.90;;;7.20;;
12603;SDS011;6367;52.508;13.284;2023-07-20T05:15:15;7.63;;;6.93;;
12603;SDS011;6367;52.508;13.284;2023-07-20T05:17:41;8.03;;;7.10;;
12603;SDS011;6367;52.508;13.284;2023-07-20T05:20:07;8.33;;;7.63;;
12603;SDS011;6367;52.508;13.284;2023-07-20T05:22:35;7.07;;;6.47;;
12603;SDS011;6367;52.508;13.284;2023-07-20T05:25:05;7.07;;;6.57;;
12603;SDS011;6367;52.508;13.284;2023-07-20T05:27:32;6.90;;;6.40;;
12603;SDS011;6367;52.508;13.284;2023-07-20T05:29:58;6.30;;;5.80;;
12603;SDS011;6367;52.508;13.284;2023-07-20T05:32:23;7.03;;;6.53;;
12603;SDS011;6367;52.508;13.284;2023-07-20T05:34:51;8.23;;;7.50;;
12603;SDS011;6367;52.508;13.284;2023-07-20T05:37:17;8.60;;;7.80;;
12603;SDS011;6367;52.508;13.284;2023-07-20T05:39:43;9.07;;;7.27;;
12603;SDS011;6367;52.508;13.284;2023-07-20T05:42:09;8.30;;;7.47;;
12603;SDS011;6367;52.508;13.284;2023-07-20T05:44:34;8.87;;;7.27;;
12603;SDS011;6367;52.508;13.284;2023-07-20T05:47:00;7.47;;;6.83;;
12603;SDS011;6367;52.508;13.284;2023-07-20T05:49:27;7.97;;;7.27;;
12603;SDS011;6367;52.508;13.284;2023-07-20T05:51:54;7.23;;;6.63;;
12603;SDS011;6367;52.508;13.284;2023-07-20T05:54:21;6.63;;;6.13;;
12603;SDS011;6367;52.508;13.284;2023-07-20T05:56:46;7.53;;;6.90;;
12603;SDS011;6367;52.508;13.284;2023-07-20T05:59:12;6.83;;;6.33;;
12603;SDS011;6367;52.508;13.284;2023-07-20T06:01:38;7.97;;;7.17;;
12603;SDS011;6367;52.508;13.284;2023-07-20T06:04:04;9.17;;;8.37;;
12603;SDS011;6367;52.508;13.284;2023-07-20T06:06:29;6.47;;;5.87;;
12603;SDS011;6367;52.508;13.284;2023-07-20T06:08:55;8.40;;;7.57;;
12603;SDS011;6367;52.508;13.284;2023-07-20T06:11:20;7.17;;;6.50;;
12603;SDS011;6367;52.508;13.284;2023-07-20T06:13:46;7.93;;;7.17;;
12603;SDS011;6367;52.508;13.284;2023-07-20T06:16:12;7.27;;;6.57;;
12603;SDS011;6367;52.508;13.284;2023-07-20T06:18:38;7.20;;;6.53;;
12603;SDS011;6367;52.508;13.284;2023-07-20T06:21:04;8.67;;;6.00;;
12603;SDS011;6367;52.508;13.284;2023-07-20T06:23:29;5.90;;;5.27;;
12603;SDS011;6367;52.508;13.284;2023-07-20T06:25:55;5.87;;;5.37;;
12603;SDS011;6367;52.508;13.284;2023-07-20T06:28:21;5.97;;;5.43;;
12603;SDS011;6367;52.508;13.284;2023-07-20T06:30:46;5.80;;;5.37;;
12603;SDS011;6367;52.508;13.284;2023-07-20T06:33:12;5.30;;;4.80;;
12603;SDS011;6367;52.508;13.284;2023-07-20T06:35:38;5.07;;;4.67;;
12603;SDS011;6367;52.508;13.284;2023-07-20T06:38:08;4.80;;;4.40;;
12603;SDS011;6367;52.508;13.284;2023-07-20T06:40:33;3.40;;;3.10;;
12603;SDS011;6367;52.508;13.284;2023-07-20T06:42:59;3.40;;;3.10;;
12603;SDS011;6367;52.508;13.284;2023-07-20T06:45:24;4.53;;;4.07;;
12603;SDS011;6367;52.508;13.284;2023-07-20T06:47:50;4.40;;;4.10;;
12603;SDS011;6367;52.508;13.284;2023-07-20T06:50:16;4.63;;;3.60;;
12603;SDS011;6367;52.508;13.284;2023-07-20T06:52:41;2.73;;;2.53;;
12603;SDS011;6367;52.508;13.284;2023-07-20T06:55:07;6.13;;;3.50;;
12603;SDS011;6367;52.508;13.284;2023-07-20T06:57:33;3.77;;;3.00;;
12603;SDS011;6367;52.508;13.284;2023-07-20T06:59:59;2.67;;;2.47;;
12603;SDS011;6367;52.508;13.284;2023-07-20T07:02:24;2.30;;;2.20;;
12603;SDS011;6367;52.508;13.284;2023-07-20T07:04:50;4.00;;;2.13;;
12603;SDS011;6367;52.508;13.284;2023-07-20T07:07:16;2.47;;;2.07;;
12603;SDS011;6367;52.508;13.284;2023-07-20T07:09:42;1.73;;;1.63;;
12603;SDS011;6367;52.508;13.284;2023-07-20T07:12:07;5.43;;;1.80;;
12603;SDS011;6367;52.508;13.284;2023-07-20T07:14:34;2.60;;;1.80;;
12603;SDS011;6367;52.508;13.284;2023-07-20T07:17:00;2.70;;;1.40;;
12603;SDS011;6367;52.508;13.284;2023-07-20T07:19:26;2.13;;;1.93;;
12603;SDS011;6367;52.508;13.284;2023-07-20T07:21:51;2.10;;;2.00;;
12603;SDS011;6367;52.508;13.284;2023-07-20T07:24:17;5.17;;;2.17;;
12603;SDS011;6367;52.508;13.284;2023-07-20T07:26:43;2.00;;;1.87;;
12603;SDS011;6367;52.508;13.284;2023-07-20T07:29:09;2.77;;;2.00;;
12603;SDS011;6367;52.508;13.284;2023-07-20T07:31:35;3.10;;;1.70;;
12603;SDS011;6367;52.508;13.284;2023-07-20T07:34:03;1.50;;;1.40;;
12603;SDS011;6367;52.508;13.284;2023-07-20T07:36:30;2.03;;;1.20;;
12603;SDS011;6367;52.508;13.284;2023-07-20T07:38:56;2.20;;;1.47;;
12603;SDS011;6367;52.508;13.284;2023-07-20T07:41:22;2.90;;;1.80;;
12603;SDS011;6367;52.508;13.284;2023-07-20T07:43:48;3.20;;;1.53;;
12603;SDS011;6367;52.508;13.284;2023-07-20T07:46:13;1.33;;;1.23;;
12603;SDS011;6367;52.508;13.284;2023-07-20T07:48:39;2.20;;;1.27;;
12603;SDS011;6367;52.508;13.284;2023-07-20T07:51:05;1.17;;;1.07;;
12603;SDS011;6367;52.508;13.284;2023-07-20T07:53:31;2.10;;;1.77;;
12603;SDS011;6367;52.508;13.284;2023-07-20T07:55:57;1.37;;;1.27;;
12603;SDS011;6367;52.508;13.284;2023-07-20T07:58:23;1.37;;;1.27;;
12603;SDS011;6367;52.508;13.284;2023-07-20T08:00:49;1.10;;;1.10;;
12603;SDS011;6367;52.508;13.284;2023-07-20T08:03:15;1.27;;;1.17;;
12603;SDS011;6367;52.508;13.284;2023-07-20T08:05:40;1.30;;;1.20;;
12603;SDS011;6367;52.508;13.284;2023-07-20T08:08:06;1.63;;;1.40;;
12603;SDS011;6367;52.508;13.284;2023-07-20T08:10:33;3.20;;;1.20;;
12603;SDS011;6367;52.508;13.284;2023-07-20T08:12:59;1.17;;;1.07;;
12603;SDS011;6367;52.508;13.284;2023-07-20T08:15:25;1.47;;;1.17;;
12603;SDS011;6367;52.508;13.284;2023-07-20T08:17:50;1.40;;;1.20;;
12603;SDS011;6367;52.508;13.284;2023-07-20T08:20:17;1.77;;;0.90;;
12603;SDS011;6367;52.508;13.284;2023-07-20T08:22:43;1.30;;;1.10;;
12603;SDS011;6367;52.508;13.284;2023-07-20T08:25:08;1.33;;;1.00;;
12603;SDS011;6367;52.508;13.284;2023-07-20T08:27:34;1.73;;;1.10;;
12603;SDS011;6367;52.508;13.284;2023-07-20T08:30:00;1.30;;;1.20;;
12603;SDS011;6367;52.508;13.284;2023-07-20T08:32:26;1.20;;;1.10;;
12603;SDS011;6367;52.508;13.284;2023-07-20T08:34:52;1.00;;;1.00;;
12603;SDS011;6367;52.508;13.284;2023-07-20T08:37:19;1.53;;;1.10;;
12603;SDS011;6367;52.508;13.284;2023-07-20T08:39:44;1.40;;;1.27;;
12603;SDS011;6367;52.508;13.284;2023-07-20T08:42:10;1.10;;;1.10;;
12603;SDS011;6367;52.508;13.284;2023-07-20T08:44:37;2.53;;;1.00;;
12603;SDS011;6367;52.508;13.284;2023-07-20T08:47:04;1.10;;;1.00;;
12603;SDS011;6367;52.508;13.284;2023-07-20T08:49:32;1.83;;;1.13;;
12603;SDS011;6367;52.508;13.284;2023-07-20T08:51:59;0.93;;;0.93;;
12603;SDS011;6367;52.508;13.284;2023-07-20T08:54:27;2.00;;;0.93;;
12603;SDS011;6367;52.508;13.284;2023-07-20T08:56:57;1.20;;;0.80;;
12603;SDS011;6367;52.508;13.284;2023-07-20T08:59:28;1.20;;;1.03;;
12603;SDS011;6367;52.508;13.284;2023-07-20T09:01:56;1.07;;;0.97;;
12603;SDS011;6367;52.508;13.284;2023-07-20T09:04:23;2.17;;;0.97;;
12603;SDS011;6367;52.508;13.284;2023-07-20T09:06:49;1.70;;;1.03;;
12603;SDS011;6367;52.508;13.284;2023-07-20T09:09:15;1.70;;;1.03;;
12603;SDS011;6367;52.508;13.284;2023-07-20T09:11:41;1.40;;;1.30;;
12603;SDS011;6367;52.508;13.284;2023-07-20T09:14:08;1.00;;;0.90;;
12603;SDS011;6367;52.508;13.284;2023-07-20T09:16:47;1.10;;;1.00;;
12603;SDS011;6367;52.508;13.284;2023-07-20T09:19:15;1.10;;;0.90;;
12603;SDS011;6367;52.508;13.284;2023-07-20T09:21:43;1.73;;;1.07;;
12603;SDS011;6367;52.508;13.284;2023-07-20T09:24:10;1.17;;;1.03;;
12603;SDS011;6367;52.508;13.284;2023-07-20T09:26:40;0.93;;;0.83;;
12603;SDS011;6367;52.508;13.284;2023-07-20T09:29:08;0.90;;;0.90;;
12603;SDS011;6367;52.508;13.284;2023-07-20T09:31:35;0.80;;;0.80;;
12603;SDS011;6367;52.508;13.284;2023-07-20T09:34:01;1.10;;;1.00;;
12603;SDS011;6367;52.508;13.284;2023-07-20T09:36:27;0.80;;;0.80;;
12603;SDS011;6367;52.508;13.284;2023-07-20T09:38:53;0.97;;;0.93;;
12603;SDS011;6367;52.508;13.284;2023-07-20T09:41:19;3.53;;;1.10;;
12603;SDS011;6367;52.508;13.284;2023-07-20T09:43:46;1.00;;;0.90;;
12603;SDS011;6367;52.508;13.284;2023-07-20T09:46:11;1.40;;;1.30;;
12603;SDS011;6367;52.508;13.284;2023-07-20T09:48:37;3.30;;;1.00;;
12603;SDS011;6367;52.508;13.284;2023-07-20T09:51:03;1.90;;;0.90;;
12603;SDS011;6367;52.508;13.284;2023-07-20T09:53:31;1.37;;;1.00;;
12603;SDS011;6367;52.508;13.284;2023-07-20T09:55:58;1.20;;;1.10;;
12603;SDS011;6367;52.508;13.284;2023-07-20T09:58:25;1.23;;;1.13;;
12603;SDS011;6367;52.508;13.284;2023-07-20T10:00:52;1.33;;;1.10;;
12603;SDS011;6367;52.508;13.284;2023-07-20T10:03:22;1.90;;;1.00;;
12603;SDS011;6367;52.508;13.284;2023-07-20T10:05:57;1.67;;;1.00;;
12603;SDS011;6367;52.508;13.284;2023-07-20T10:08:29;2.50;;;1.30;;
12603;SDS011;6367;52.508;13.284;2023-07-20T10:10:55;1.30;;;1.20;;
12603;SDS011;6367;52.508;13.284;2023-07-20T10:13:27;1.20;;;1.10;;
12603;SDS011;6367;52.508;13.284;2023-07-20T10:16:02;1.70;;;0.97;;
12603;SDS011;6367;52.508;13.284;2023-07-20T10:18:45;1.50;;;1.00;;
12603;SDS011;6367;52.508;13.284;2023-07-20T10:21:19;1.70;;;1.07;;
12603;SDS011;6367;52.508;13.284;2023-07-20T10:23:48;3.53;;;1.00;;
12603;SDS011;6367;52.508;13.284;2023-07-20T10:26:13;1.70;;;1.07;;
12603;SDS011;6367;52.508;13.284;2023-07-20T10:28:39;1.57;;;1.10;;
12603;SDS011;6367;52.508;13.284;2023-07-20T10:31:07;1.50;;;1.20;;
12603;SDS011;6367;52.508;13.284;2023-07-20T10:33:34;2.23;;;2.03;;
12603;SDS011;6367;52.508;13.284;2023-07-20T10:36:03;2.20;;;1.33;;
12603;SDS011;6367;52.508;13.284;2023-07-20T10:41:20;1.60;;;1.50;;
12603;SDS011;6367;52.508;13.284;2023-07-20T10:43:49;1.63;;;1.53;;
12603;SDS011;6367;52.508;13.284;2023-07-20T10:46:33;1.70;;;1.57;;
12603;SDS011;6367;52.508;13.284;2023-07-20T10:49:05;1.40;;;1.30;;
12603;SDS011;6367;52.508;13.284;2023-07-20T10:56:56;1.33;;;1.23;;
12603;SDS011;6367;52.508;13.284;2023-07-20T11:01:48;5.03;;;1.90;;
12603;SDS011;6367;52.508;13.284;2023-07-20T11:04:15;1.50;;;1.40;;
12603;SDS011;6367;52.508;13.284;2023-07-20T11:06:44;1.77;;;1.40;;
12603;SDS011;6367;52.508;13.284;2023-07-20T11:09:11;2.17;;;1.90;;
12603;SDS011;6367;52.508;13.284;2023-07-20T11:11:44;3.03;;;2.57;;
12603;SDS011;6367;52.508;13.284;2023-07-20T11:14:30;4.30;;;3.30;;
12603;SDS011;6367;52.508;13.284;2023-07-20T11:16:59;2.90;;;2.10;;
12603;SDS011;6367;52.508;13.284;2023-07-20T11:19:36;2.37;;;2.10;;
12603;SDS011;6367;52.508;13.284;2023-07-20T11:22:04;3.00;;;1.90;;
12603;SDS011;6367;52.508;13.284;2023-07-20T11:24:32;1.87;;;1.73;;
12603;SDS011;6367;52.508;13.284;2023-07-20T11:26:58;2.00;;;1.53;;
12603;SDS011;6367;52.508;13.284;2023-07-20T11:29:25;4.50;;;1.73;;
12603;SDS011;6367;52.508;13.284;2023-07-20T11:31:51;2.27;;;1.40;;
12603;SDS011;6367;52.508;13.284;2023-07-20T11:34:18;4.80;;;2.00;;
12603;SDS011;6367;52.508;13.284;2023-07-20T11:36:46;1.73;;;1.40;;
12603;SDS011;6367;52.508;13.284;2023-07-20T11:39:13;1.40;;;1.30;;
12603;SDS011;6367;52.508;13.284;2023-07-20T11:41:46;1.50;;;1.40;;
12603;SDS011;6367;52.508;13.284;2023-07-20T11:44:15;1.60;;;1.23;;
12603;SDS011;6367;52.508;13.284;2023-07-20T11:46:42;2.67;;;1.50;;
12603;SDS011;6367;52.508;13.284;2023-07-20T11:49:09;1.43;;;1.03;;
12603;SDS011;6367;52.508;13.284;2023-07-20T11:51:36;2.43;;;1.03;;
12603;SDS011;6367;52.508;13.284;2023-07-20T11:54:03;1.10;;;1.00;;
12603;SDS011;6367;52.508;13.284;2023-07-20T11:56:31;1.30;;;1.20;;
12603;SDS011;6367;52.508;13.284;2023-07-20T11:58:57;0.90;;;0.90;;
12603;SDS011;6367;52.508;13.284;2023-07-20T12:01:25;0.93;;;0.93;;
12603;SDS011;6367;52.508;13.284;2023-07-20T12:04:03;1.60;;;0.90;;
12603;SDS011;6367;52.508;13.284;2023-07-20T12:06:30;1.20;;;1.10;;
12603;SDS011;6367;52.508;13.284;2023-07-20T12:08:59;3.07;;;1.30;;
12603;SDS011;6367;52.508;13.284;2023-07-20T12:14:00;1.37;;;1.20;;
12603;SDS011;6367;52.508;13.284;2023-07-20T12:16:27;1.17;;;1.00;;
12603;SDS011;6367;52.508;13.284;2023-07-20T12:19:00;1.30;;;0.90;;
12603;SDS011;6367;52.508;13.284;2023-07-20T12:21:36;1.33;;;1.00;;
12603;SDS011;6367;52.508;13.284;2023-07-20T12:24:03;0.80;;;0.80;;
12603;SDS011;6367;52.508;13.284;2023-07-20T12:26:30;0.83;;;0.80;;
12603;SDS011;6367;52.508;13.284;2023-07-20T12:28:57;1.20;;;0.90;;
12603;SDS011;6367;52.508;13.284;2023-07-20T12:31:22;0.80;;;0.80;;
12603;SDS011;6367;52.508;13.284;2023-07-20T12:33:51;2.20;;;0.77;;
12603;SDS011;6367;52.508;13.284;2023-07-20T12:36:18;3.00;;;0.90;;
12603;SDS011;6367;52.508;13.284;2023-07-20T12:38:44;2.03;;;0.90;;
12603;SDS011;6367;52.508;13.284;2023-07-20T12:41:10;0.90;;;0.80;;
12603;SDS011;6367;52.508;13.284;2023-07-20T12:43:43;0.70;;;0.70;;
12603;SDS011;6367;52.508;13.284;2023-07-20T12:46:10;0.80;;;0.80;;
12603;SDS011;6367;52.508;13.284;2023-07-20T12:48:38;1.17;;;1.00;;
12603;SDS011;6367;52.508;13.284;2023-07-20T12:51:06;1.20;;;1.00;;
12603;SDS011;6367;52.508;13.284;2023-07-20T12:53:32;1.43;;;0.83;;
12603;SDS011;6367;52.508;13.284;2023-07-20T12:55:58;2.23;;;0.80;;
12603;SDS011;6367;52.508;13.284;2023-07-20T12:58:24;1.10;;;0.70;;
12603;SDS011;6367;52.508;13.284;2023-07-20T13:00:50;1.03;;;0.70;;
12603;SDS011;6367;52.508;13.284;2023-07-20T13:03:16;1.30;;;0.80;;
12603;SDS011;6367;52.508;13.284;2023-07-20T13:05:44;0.90;;;0.70;;
12603;SDS011;6367;52.508;13.284;2023-07-20T13:08:13;0.80;;;0.80;;
12603;SDS011;6367;52.508;13.284;2023-07-20T13:10:39;1.03;;;0.70;;
12603;SDS011;6367;52.508;13.284;2023-07-20T13:13:05;0.80;;;0.80;;
12603;SDS011;6367;52.508;13.284;2023-07-20T13:15:32;0.60;;;0.60;;
12603;SDS011;6367;52.508;13.284;2023-07-20T13:17:58;0.70;;;0.60;;
12603;SDS011;6367;52.508;13.284;2023-07-20T13:20:25;0.70;;;0.70;;
12603;SDS011;6367;52.508;13.284;2023-07-20T13:22:51;2.00;;;0.97;;
12603;SDS011;6367;52.508;13.284;2023-07-20T13:25:17;0.80;;;0.70;;
12603;SDS011;6367;52.508;13.284;2023-07-20T13:27:44;1.17;;;0.83;;
12603;SDS011;6367;52.508;13.284;2023-07-20T13:30:10;1.43;;;0.80;;
12603;SDS011;6367;52.508;13.284;2023-07-20T13:32:41;1.53;;;0.90;;
12603;SDS011;6367;52.508;13.284;2023-07-20T13:35:10;0.73;;;0.70;;
12603;SDS011;6367;52.508;13.284;2023-07-20T13:37:39;0.70;;;0.70;;
12603;SDS011;6367;52.508;13.284;2023-07-20T13:40:06;3.20;;;1.00;;
12603;SDS011;6367;52.508;13.284;2023-07-20T13:42:33;0.70;;;0.70;;
12603;SDS011;6367;52.508;13.284;2023-07-20T13:44:59;0.80;;;0.60;;
12603;SDS011;6367;52.508;13.284;2023-07-20T13:47:26;0.70;;;0.70;;
12603;SDS011;6367;52.508;13.284;2023-07-20T13:49:51;0.90;;;0.80;;
12603;SDS011;6367;52.508;13.284;2023-07-20T13:52:17;0.80;;;0.80;;
12603;SDS011;6367;52.508;13.284;2023-07-20T13:54:43;1.00;;;0.90;;
12603;SDS011;6367;52.508;13.284;2023-07-20T13:57:08;0.70;;;0.70;;
12603;SDS011;6367;52.508;13.284;2023-07-20T13:59:34;0.77;;;0.77;;
12603;SDS011;6367;52.508;13.284;2023-07-20T14:02:00;1.13;;;0.80;;
12603;SDS011;6367;52.508;13.284;2023-07-20T14:04:26;0.80;;;0.80;;
12603;SDS011;6367;52.508;13.284;2023-07-20T14:06:51;1.47;;;0.90;;
12603;SDS011;6367;52.508;13.284;2023-07-20T14:09:17;2.93;;;0.80;;
12603;SDS011;6367;52.508;13.284;2023-07-20T14:11:43;0.80;;;0.80;;
12603;SDS011;6367;52.508;13.284;2023-07-20T14:14:08;0.70;;;0.70;;
12603;SDS011;6367;52.508;13.284;2023-07-20T14:16:34;0.80;;;0.80;;
12603;SDS011;6367;52.508;13.284;2023-07-20T14:19:00;0.80;;;0.80;;
12603;SDS011;6367;52.508;13.284;2023-07-20T14:21:25;1.17;;;0.80;;
12603;SDS011;6367;52.508;13.284;2023-07-20T14:23:52;0.80;;;0.80;;
12603;SDS011;6367;52.508;13.284;2023-07-20T14:26:18;0.70;;;0.70;;
12603;SDS011;6367;52.508;13.284;2023-07-20T14:28:44;2.30;;;0.90;;
12603;SDS011;6367;52.508;13.284;2023-07-20T14:31:10;0.73;;;0.73;;
12603;SDS011;6367;52.508;13.284;2023-07-20T14:33:36;2.33;;;0.80;;
12603;SDS011;6367;52.508;13.284;2023-07-20T14:36:02;0.73;;;0.73;;
12603;SDS011;6367;52.508;13.284;2023-07-20T14:38:28;1.93;;;0.90;;
12603;SDS011;6367;52.508;13.284;2023-07-20T14:40:57;1.53;;;0.90;;
12603;SDS011;6367;52.508;13.284;2023-07-20T14:43:23;2.43;;;0.90;;
12603;SDS011;6367;52.508;13.284;2023-07-20T14:45:48;0.90;;;0.90;;
12603;SDS011;6367;52.508;13.284;2023-07-20T14:48:14;1.00;;;0.90;;
12603;SDS011;6367;52.508;13.284;2023-07-20T14:50:39;1.23;;;1.00;;
12603;SDS011;6367;52.508;13.284;2023-07-20T14:53:05;1.10;;;1.00;;
12603;SDS011;6367;52.508;13.284;2023-07-20T14:55:32;1.40;;;1.27;;
12603;SDS011;6367;52.508;13.284;2023-07-20T14:57:58;1.63;;;0.80;;
12603;SDS011;6367;52.508;13.284;2023-07-20T15:00:24;0.80;;;0.80;;
12603;SDS011;6367;52.508;13.284;2023-07-20T15:02:50;1.40;;;1.00;;
12603;SDS011;6367;52.508;13.284;2023-07-20T15:05:21;1.10;;;0.90;;
12603;SDS011;6367;52.508;13.284;2023-07-20T15:07:47;1.13;;;1.03;;
12603;SDS011;6367;52.508;13.284;2023-07-20T15:10:13;2.00;;;1.10;;
12603;SDS011;6367;52.508;13.284;2023-07-20T15:12:40;1.07;;;0.97;;